TimeAEDT,TemperatureF,Dew PointF,Humidity,Sea Level PressureIn,VisibilityMPH,Wind Direction,Wind SpeedMPH,Gust SpeedMPH,PrecipitationIn,Events,Conditions,WindDirDegrees,DateUTC
12:00 AM,80,53,28,29.96,19,North,11.5,,,,Partly Cloudy,0,2013-03-09 13:00:00
12:00 AM,78.8,53.6,42,29.95,-9999.0,North,11.5,-,N/A,,Clear,360,2013-03-09 13:00:00
12:30 AM,77.0,53.6,44,29.95,-9999.0,North,11.5,-,N/A,,Clear,360,2013-03-09 13:30:00
1:00 AM,78.8,51.8,39,29.95,-9999.0,North,12.7,-,N/A,,Clear,350,2013-03-09 14:00:00
1:30 AM,78.8,51.8,39,29.95,-9999.0,North,15.0,-,N/A,,Clear,350,2013-03-09 14:30:00
2:00 AM,77,53,33,29.96,,North,12.7,,,,,350,2013-03-09 15:00:00
2:00 AM,77.0,53.6,44,29.95,-9999.0,North,12.7,-,N/A,,Clear,350,2013-03-09 15:00:00
2:30 AM,77.0,53.6,44,29.95,-9999.0,North,13.8,-,N/A,,Clear,350,2013-03-09 15:30:00
3:00 AM,76,53,34,29.96,19,North,11.5,,,,Partly Cloudy,350,2013-03-09 16:00:00
3:00 AM,77.0,53.6,44,29.95,-9999.0,North,11.5,-,N/A,,Clear,350,2013-03-09 16:00:00
3:30 AM,75.2,53.6,47,29.95,-9999.0,North,11.5,-,N/A,,Clear,350,2013-03-09 16:30:00
4:00 AM,73.4,55.4,53,29.98,-9999.0,SSW,5.8,-,N/A,,Clear,210,2013-03-09 17:00:00
4:30 AM,75.2,55.4,50,29.98,-9999.0,NW,5.8,-,N/A,,Clear,310,2013-03-09 17:30:00
5:00 AM,72,57,50,29.97,,South,2.3,,,,,190,2013-03-09 18:00:00
5:00 AM,73.4,57.2,57,29.98,-9999.0,South,2.3,-,N/A,,Clear,190,2013-03-09 18:00:00
5:30 AM,71.6,57.2,60,29.98,-9999.0,Calm,Calm,-,N/A,,Clear,0,2013-03-09 18:30:00
6:00 AM,69,57,56,29.99,19,West,4.6,,,,Partly Cloudy,280,2013-03-09 19:00:00
6:00 AM,69.8,57.2,64,29.98,-9999.0,West,4.6,-,N/A,,Clear,280,2013-03-09 19:00:00
6:30 AM,69.8,60.8,73,29.98,-9999.0,West,5.8,-,N/A,,Clear,280,2013-03-09 19:30:00
7:00 AM,68.0,59.0,73,30.01,-9999.0,North,4.6,-,N/A,,Clear,350,2013-03-09 20:00:00
7:30 AM,68.0,62.6,83,30.01,-9999.0,North,5.8,-,N/A,,Clear,360,2013-03-09 20:30:00
8:00 AM,69,62,73,30.01,,North,5.8,,,,,0,2013-03-09 21:00:00
8:00 AM,69.8,62.6,78,30.01,-9999.0,North,5.8,-,N/A,,Clear,360,2013-03-09 21:00:00
8:30 AM,69.8,60.8,73,30.01,-9999.0,North,8.1,-,N/A,,Clear,360,2013-03-09 21:30:00
9:00 AM,73,61,56,30.02,19,North,8.1,,,,Partly Cloudy,10,2013-03-09 22:00:00
9:00 AM,73.4,60.8,65,30.01,-9999.0,North,8.1,19.6,N/A,,Clear,10,2013-03-09 22:00:00
9:30 AM,77.0,57.2,50,30.01,-9999.0,NNE,6.9,-,N/A,,Clear,20,2013-03-09 22:30:00
10:00 AM,82.4,53.6,37,30.01,-9999.0,North,12.7,-,N/A,,Clear,10,2013-03-09 23:00:00
10:30 AM,86.0,51.8,31,30.04,-9999.0,North,16.1,-,N/A,,Clear,10,2013-03-09 23:30:00
11:00 AM,88,52,19,30.02,,North,16.1,,,,,10,2013-03-10 00:00:00
11:00 AM,87.8,51.8,29,30.01,-9999.0,North,16.1,-,N/A,,Clear,10,2013-03-10 00:00:00
11:30 AM,91.4,51.8,26,30.01,-9999.0,North,17.3,-,N/A,,Clear,10,2013-03-10 00:30:00
12:00 PM,92,51,16,30.01,25,North,16.1,,,,Partly Cloudy,0,2013-03-10 01:00:00
12:00 PM,91.4,51.8,26,30.01,-9999.0,North,16.1,-,N/A,,Clear,360,2013-03-10 01:00:00
12:30 PM,93.2,50.0,23,30.01,-9999.0,NNW,16.1,-,N/A,,Clear,330,2013-03-10 01:30:00
1:00 PM,95.0,50.0,22,29.98,-9999.0,North,15.0,-,N/A,,Clear,350,2013-03-10 02:00:00
1:30 PM,93.2,50.0,23,29.98,-9999.0,North,10.4,21.9,N/A,,Clear,350,2013-03-10 02:30:00
2:00 PM,90,59,25,29.98,,WNW,8.1,,,,,290,2013-03-10 03:00:00
2:00 PM,89.6,59.0,36,29.98,-9999.0,WNW,8.1,-,N/A,,Clear,290,2013-03-10 03:00:00
2:30 PM,89.6,64.4,43,29.98,-9999.0,SSE,13.8,-,N/A,,Clear,150,2013-03-10 03:30:00
3:00 PM,89,52,19,29.97,16,East,16.1,,,,Mostly Cloudy,100,2013-03-10 04:00:00
3:00 PM,89.6,51.8,27,29.98,-9999.0,East,16.1,-,N/A,,Clear,100,2013-03-10 04:00:00
3:30 PM,86.0,55.4,35,29.98,6.2,West,10.4,-,N/A,Rain,Light Rain Showers,270,2013-03-10 04:30:00
4:00 PM,86.0,55.4,35,29.98,6.2,NNE,11.5,-,N/A,,Unknown,30,2013-03-10 05:00:00
5:00 PM,87,55,23,29.96,,East,10.4,,,,,100,2013-03-10 06:00:00
5:00 PM,87.8,55.4,33,29.95,-9999.0,East,10.4,-,N/A,,Clear,100,2013-03-10 06:00:00
5:30 PM,89.6,53.6,29,29.95,-9999.0,East,8.1,-,N/A,,Clear,90,2013-03-10 06:30:00
6:00 PM,83,62,39,29.96,19,South,10.4,,,,Partly Cloudy,180,2013-03-10 07:00:00
6:00 PM,82.4,62.6,51,29.95,-9999.0,South,10.4,-,N/A,,Clear,180,2013-03-10 07:00:00
6:30 PM,80.6,62.6,54,29.98,-9999.0,South,10.4,-,N/A,,Clear,170,2013-03-10 07:30:00
7:00 PM,78.8,62.6,57,29.98,-9999.0,South,9.2,-,N/A,,Clear,180,2013-03-10 08:00:00
7:30 PM,78.8,62.6,57,29.98,-9999.0,South,9.2,-,N/A,,Clear,180,2013-03-10 08:30:00
8:00 PM,77,61,47,30.00,,South,8.1,,,,,190,2013-03-10 09:00:00
8:00 PM,77.0,60.8,57,30.01,-9999.0,South,8.1,-,N/A,,Clear,190,2013-03-10 09:00:00
8:30 PM,77.0,62.6,61,30.01,-9999.0,SW,8.1,-,N/A,,Clear,230,2013-03-10 09:30:00
9:00 PM,75.2,60.8,61,30.01,-9999.0,SW,8.1,-,N/A,,Clear,220,2013-03-10 10:00:00
9:30 PM,73.4,62.6,69,30.04,-9999.0,WSW,8.1,-,N/A,,Clear,250,2013-03-10 10:30:00
10:00 PM,73.4,62.6,69,30.04,-9999.0,West,10.4,-,N/A,,Clear,260,2013-03-10 11:00:00
10:30 PM,71.6,62.6,73,30.04,-9999.0,West,6.9,-,N/A,,Clear,260,2013-03-10 11:30:00
11:00 PM,71,64,73,30.04,,WSW,6.9,,,,,250,2013-03-10 12:00:00
11:00 PM,71.6,64.4,78,30.04,-9999.0,WSW,6.9,-,N/A,,Clear,250,2013-03-10 12:00:00
11:30 PM,69.8,64.4,83,30.04,-9999.0,WSW,5.8,-,N/A,,Clear,250,2013-03-10 12:30:00